Time;durP1;ratioP1;P1;durP2;ratioP2;P2;SDS_P1;SDS_P2;PMS_P1;PMS_P2;Temp;Humidity;BMP_temperature;BMP_pressure;BME280_temperature;BME280_humidity;BME280_pressure;Samples;Min_cycle;Max_cycle;Signal;HPM_P1;HPM_P2
2024/01/10 07:16:31;;;;;;;38.20;15.13;;;;;;;-1.03;51.61;101668.22;5607717;23;20904;-68
2024/01/10 07:19:13;;;;;;;47.03;17.57;;;;;;;-0.98;51.17;101679.38;4823140;29;20464;-66
2024/01/10 07:22:10;;;;;;;38.00;14.43;;;;;;;-0.91;51.11;101683.50;4823091;29;20461;-67
2024/01/10 07:24:48;;;;;;;35.63;15.27;;;;;;;-0.92;51.05;101682.66;4826681;29;20574;-68
2024/01/10 07:27:19;;;;;;;36.47;14.60;;;;;;;-0.92;50.90;101685.25;4823189;23;21027;-64
2024/01/10 07:29:47;;;;;;;32.10;13.97;;;;;;;-0.92;50.88;101694.81;4804846;29;20981;-66
2024/01/10 07:32:16;;;;;;;37.93;14.77;;;;;;;-0.92;50.90;101693.06;4806624;29;20505;-64
2024/01/10 07:34:44;;;;;;;37.67;14.23;;;;;;;-0.91;50.76;101694.78;4806708;29;21383;-64
2024/01/10 07:37:16;;;;;;;34.43;14.93;;;;;;;-0.89;50.84;101697.34;4807368;29;20482;-69
2024/01/10 07:39:44;;;;;;;34.93;13.73;;;;;;;-0.84;50.71;101695.44;4808302;29;20457;-62
2024/01/10 07:42:12;;;;;;;35.57;14.67;;;;;;;-0.80;51.07;101700.53;4808692;29;20467;-64
2024/01/10 07:44:39;;;;;;;35.90;14.83;;;;;;;-0.77;50.85;101707.38;4807048;29;20577;-63
2024/01/10 07:47:07;;;;;;;35.30;14.83;;;;;;;-0.75;50.93;101710.78;4803791;29;20470;-63
2024/01/10 07:49:37;;;;;;;35.70;13.80;;;;;;;-0.76;50.66;101703.88;4804340;29;20474;-62
2024/01/10 07:52:05;;;;;;;43.10;16.33;;;;;;;-0.76;50.73;101715.16;4808660;29;20497;-61
2024/01/10 07:54:33;;;;;;;36.10;14.33;;;;;;;-0.70;50.72;101713.28;4809894;29;20507;-63
2024/01/10 07:57:00;;;;;;;38.10;14.63;;;;;;;-0.71;50.51;101715.03;4813426;29;20577;-63
2024/01/10 07:59:29;;;;;;;40.53;15.97;;;;;;;-0.69;50.80;101715.81;4807926;29;20454;-64
2024/01/10 08:01:58;;;;;;;41.43;15.00;;;;;;;-0.68;50.83;101709.69;4809374;29;20464;-64
2024/01/10 08:04:26;;;;;;;35.93;15.10;;;;;;;-0.65;50.87;101714.84;4806439;29;21246;-65
2024/01/10 08:06:56;;;;;;;37.70;14.00;;;;;;;-0.62;50.64;101714.75;4804885;29;20478;-63
2024/01/10 08:09:24;;;;;;;41.60;15.20;;;;;;;-0.58;50.56;101716.34;4811186;29;20458;-63
2024/01/10 08:11:52;;;;;;;35.63;14.87;;;;;;;-0.54;50.63;101720.56;4810037;29;20650;-67
2024/01/10 08:14:20;;;;;;;38.27;14.70;;;;;;;-0.50;50.19;101727.38;4809062;29;20464;-65
2024/01/10 08:16:48;;;;;;;37.37;14.37;;;;;;;-0.49;50.33;101726.47;4807409;29;20559;-63
2024/01/10 08:19:16;;;;;;;35.50;15.27;;;;;;;-0.43;50.12;101721.06;4807089;29;20476;-64
2024/01/10 08:21:44;;;;;;;38.50;14.50;;;;;;;-0.37;50.00;101714.84;4808290;29;20476;-63
2024/01/10 08:24:13;;;;;;;41.77;15.00;;;;;;;-0.31;49.85;101722.44;4806818;29;20479;-65
2024/01/10 08:26:41;;;;;;;39.23;15.80;;;;;;;-0.24;49.77;101723.09;4806636;29;20553;-65
2024/01/10 08:29:09;;;;;;;43.07;14.70;;;;;;;-0.22;49.80;101722.16;4804668;29;20491;-63
2024/01/10 08:31:36;;;;;;;35.23;14.60;;;;;;;-0.19;49.63;101716.00;4808687;29;20246;-62
2024/01/10 08:34:04;;;;;;;40.97;14.93;;;;;;;-0.13;49.56;101721.00;4805079;29;20472;-66
2024/01/10 08:36:32;;;;;;;40.17;14.70;;;;;;;-0.11;49.21;101708.78;4805963;29;21298;-62
2024/01/10 08:39:00;;;;;;;37.80;16.10;;;;;;;-0.12;49.09;101727.94;4808956;29;20610;-63
2024/01/10 08:41:30;;;;;;;35.97;14.47;;;;;;;-0.07;48.88;101716.44;4806411;29;20777;-63
2024/01/10 08:43:57;;;;;;;37.83;15.50;;;;;;;-0.01;48.70;101726.69;4807842;29;20553;-62
2024/01/10 08:46:25;;;;;;;39.00;14.13;;;;;;;0.00;48.93;101719.72;4805945;29;20475;-63
2024/01/10 08:48:53;;;;;;;37.83;15.03;;;;;;;0.02;48.93;101717.88;4806764;29;20674;-65
2024/01/10 08:51:21;;;;;;;36.83;15.03;;;;;;;0.03;48.81;101714.38;4808469;29;20232;-64
2024/01/10 08:53:49;;;;;;;39.93;13.60;;;;;;;0.00;48.95;101722.31;4806584;29;20462;-64
2024/01/10 08:56:17;;;;;;;36.70;14.67;;;;;;;0.02;49.11;101719.66;4807805;29;20455;-62
2024/01/10 08:58:46;;;;;;;37.03;15.60;;;;;;;0.04;49.15;101723.91;4807492;29;20293;-65
2024/01/10 09:01:14;;;;;;;36.97;14.70;;;;;;;0.08;48.79;101719.47;4806802;29;20234;-64
2024/01/10 09:03:42;;;;;;;35.17;14.33;;;;;;;0.13;48.92;101722.75;4807073;29;20314;-67
2024/01/10 09:06:10;;;;;;;34.10;13.10;;;;;;;0.19;48.72;101718.19;4806120;29;20657;-67
2024/01/10 09:08:40;;;;;;;35.27;14.07;;;;;;;0.29;48.49;101731.75;4807131;29;20615;-66
2024/01/10 09:11:08;;;;;;;33.57;14.27;;;;;;;0.36;48.30;101728.88;4808009;29;20219;-62
2024/01/10 09:13:37;;;;;;;33.23;14.20;;;;;;;0.42;48.23;101734.81;4807022;29;20249;-64
2024/01/10 09:16:07;;;;;;;42.63;14.97;;;;;;;0.51;48.37;101724.06;4807879;29;20247;-62
2024/01/10 09:18:35;;;;;;;33.43;14.00;;;;;;;0.63;48.09;101731.44;4805878;29;20235;-64
2024/01/10 09:21:05;;;;;;;33.50;13.97;;;;;;;0.71;48.00;101726.78;4806170;29;20215;-64
2024/01/10 09:23:33;;;;;;;33.07;14.30;;;;;;;0.82;48.00;101729.03;4808310;29;20272;-65
2024/01/10 09:26:01;;;;;;;32.53;13.97;;;;;;;0.85;48.07;101727.16;4806938;29;20228;-62
2024/01/10 09:28:29;;;;;;;42.63;14.73;;;;;;;0.86;47.72;101739.31;4806825;29;20747;-63
2024/01/10 09:30:56;;;;;;;36.77;13.70;;;;;;;0.86;47.74;101726.28;4806785;29;20232;-64
2024/01/10 09:33:25;;;;;;;30.33;13.57;;;;;;;0.93;48.03;101735.56;4809551;29;20236;-62
2024/01/10 09:35:53;;;;;;;42.57;13.13;;;;;;;0.99;47.78;101731.88;4807243;29;20221;-64
2024/01/10 09:38:21;;;;;;;47.10;16.23;;;;;;;1.07;47.68;101735.91;4806866;29;20218;-63
2024/01/10 09:40:49;;;;;;;38.87;13.20;;;;;;;1.22;47.08;101738.88;4807451;29;20700;-63
2024/01/10 09:43:17;;;;;;;33.20;14.13;;;;;;;1.42;46.98;101739.81;4805717;29;20220;-63
2024/01/10 09:45:49;;;;;;;32.23;14.23;;;;;;;1.65;46.27;101735.47;4805412;29;20311;-65
2024/01/10 09:48:17;;;;;;;33.53;12.80;;;;;;;1.89;45.88;101737.09;4807140;29;20217;-63
2024/01/10 09:50:50;;;;;;;30.70;13.17;;;;;;;2.23;45.26;101737.41;4805393;29;20225;-64
2024/01/10 09:53:23;;;;;;;40.73;13.00;;;;;;;2.54;44.48;101729.09;4806211;29;20292;-65
2024/01/10 09:55:51;;;;;;;37.40;14.53;;;;;;;2.78;44.17;101734.19;4805468;29;20209;-62
2024/01/10 09:58:19;;;;;;;36.53;14.90;;;;;;;2.99;43.83;101736.69;4806006;29;20213;-62
2024/01/10 10:00:47;;;;;;;31.37;14.17;;;;;;;3.23;43.55;101739.13;4805909;29;20265;-63
2024/01/10 10:03:18;;;;;;;33.30;13.87;;;;;;;3.33;43.25;101740.41;4804974;29;20596;-62
2024/01/10 10:05:47;;;;;;;35.23;14.17;;;;;;;3.32;43.50;101746.56;4803532;29;20209;-64
2024/01/10 10:08:21;;;;;;;31.93;13.40;;;;;;;3.33;42.92;101737.78;4805967;29;20219;-64
2024/01/10 10:10:50;;;;;;;31.87;14.07;;;;;;;3.38;43.24;101741.03;4807153;29;20212;-63
2024/01/10 10:13:28;;;;;;;32.13;13.37;;;;;;;3.51;43.04;101741.31;4807607;29;20624;-68
2024/01/10 10:15:59;;;;;;;31.57;14.67;;;;;;;4.35;41.66;101740.66;4805435;29;20236;-63
2024/01/10 10:18:28;;;;;;;33.17;15.07;;;;;;;5.77;39.01;101731.25;4806768;29;20221;-64
2024/01/10 10:21:12;;;;;;;32.77;14.43;;;;;;;6.18;37.55;101727.13;4806349;29;20226;-64
2024/01/10 10:23:42;;;;;;;31.40;12.83;;;;;;;7.04;36.24;101728.06;4805771;29;20239;-66
2024/01/10 10:26:13;;;;;;;28.17;14.73;;;;;;;7.33;35.53;101726.28;4805186;29;20228;-62
2024/01/10 10:28:42;;;;;;;28.77;14.03;;;;;;;7.39;35.19;101734.63;4807209;29;20208;-63
2024/01/10 10:31:11;;;;;;;30.67;15.50;;;;;;;6.58;36.06;101724.78;4806866;29;20778;-66
2024/01/10 10:33:40;;;;;;;27.30;14.63;;;;;;;6.19;36.65;101715.66;4809135;29;20243;-65
2024/01/10 10:36:08;;;;;;;28.83;15.43;;;;;;;6.15;36.66;101716.78;4803189;29;20302;-62
2024/01/10 10:38:38;;;;;;;34.37;16.07;;;;;;;6.09;37.01;101725.03;4804548;29;20731;-62
2024/01/10 10:41:10;;;;;;;30.27;15.70;;;;;;;5.67;37.80;101721.25;4804734;29;20245;-64
2024/01/10 10:43:39;;;;;;;32.83;16.23;;;;;;;5.82;37.87;101721.31;4808258;29;20290;-64
2024/01/10 10:46:09;;;;;;;35.90;16.93;;;;;;;8.55;34.69;101727.88;4805822;29;20227;-66
2024/01/10 10:48:37;;;;;;;30.50;15.40;;;;;;;11.40;30.77;101711.91;4805403;29;20299;-65
2024/01/10 10:51:07;;;;;;;31.40;16.47;;;;;;;13.31;28.29;101710.78;4804844;29;20300;-65
2024/01/10 10:53:36;;;;;;;32.23;16.90;;;;;;;14.24;27.08;101711.19;4806924;29;20240;-63
2024/01/10 10:56:07;;;;;;;32.23;17.83;;;;;;;13.60;27.18;101719.69;4805017;29;20587;-63
2024/01/10 10:58:37;;;;;;;31.20;16.00;;;;;;;12.69;27.93;101711.75;4803728;29;20279;-63
2024/01/10 11:01:06;;;;;;;27.60;16.50;;;;;;;12.00;28.56;101703.44;4805794;29;20282;-66
2024/01/10 11:03:37;;;;;;;31.13;17.87;;;;;;;11.54;28.79;101709.81;4804012;29;20426;-64
2024/01/10 11:06:06;;;;;;;34.17;20.47;;;;;;;11.12;29.35;101715.94;4802812;29;20560;-65
2024/01/10 11:08:37;;;;;;;29.53;18.80;;;;;;;10.26;30.35;101716.41;4806957;29;20318;-66
2024/01/10 11:11:14;;;;;;;26.93;17.37;;;;;;;9.34;31.40;101705.56;4805517;29;25211;-62
2024/01/10 11:14:10;;;;;;;28.23;16.70;;;;;;;8.92;32.18;101717.41;4803595;29;20304;-63
2024/01/10 11:17:04;;;;;;;28.43;16.40;;;;;;;9.02;32.01;101706.06;4805242;29;20311;-67
2024/01/10 11:19:56;;;;;;;26.33;15.93;;;;;;;9.57;31.47;101703.91;4804789;29;20216;-65
2024/01/10 11:22:41;;;;;;;25.07;16.07;;;;;;;11.49;28.73;101697.91;4803432;29;20908;-65
2024/01/10 11:25:10;;;;;;;28.67;15.70;;;;;;;12.44;27.20;101687.25;4804496;29;20232;-61
2024/01/10 11:27:39;;;;;;;27.47;15.97;;;;;;;12.79;26.33;101686.88;4808324;29;20577;-65
2024/01/10 11:30:08;;;;;;;27.27;16.07;;;;;;;12.70;26.43;101687.66;4808225;29;20220;-63
2024/01/10 11:32:36;;;;;;;23.37;14.93;;;;;;;13.23;25.46;101681.31;4806877;29;21031;-63
2024/01/10 11:35:11;;;;;;;26.73;14.87;;;;;;;14.18;24.75;101679.72;4808517;29;20378;-63
2024/01/10 11:37:40;;;;;;;25.07;14.00;;;;;;;14.43;24.48;101675.63;4809673;29;20707;-64
2024/01/10 11:40:10;;;;;;;22.70;14.13;;;;;;;14.07;24.54;101679.88;4809042;29;20221;-65
2024/01/10 11:42:47;;;;;;;23.23;13.50;;;;;;;12.04;25.90;101673.81;4808732;29;20401;-63
2024/01/10 11:45:37;;;;;;;25.93;14.33;;;;;;;9.87;28.45;101685.75;4809215;29;20260;-65
2024/01/10 11:48:08;;;;;;;26.63;14.67;;;;;;;8.38;30.30;101683.22;4809864;29;20933;-66
2024/01/10 11:50:36;;;;;;;24.30;13.63;;;;;;;7.11;31.64;101688.06;4807086;29;20225;-63
2024/01/10 11:53:04;;;;;;;22.20;12.60;;;;;;;6.25;32.93;101691.56;4807865;29;20263;-65
2024/01/10 11:55:52;;;;;;;25.50;13.33;;;;;;;5.60;34.34;101690.09;4808278;29;20277;-65
2024/01/10 11:58:24;;;;;;;22.33;12.93;;;;;;;5.11;35.05;101697.22;4807370;29;20208;-63
2024/01/10 12:00:53;;;;;;;23.97;13.40;;;;;;;4.64;36.12;101690.13;4801145;29;20208;-63
2024/01/10 12:03:24;;;;;;;25.30;12.33;;;;;;;4.37;36.96;101686.28;4803058;29;20217;-67
2024/01/10 12:05:55;;;;;;;23.97;12.53;;;;;;;4.11;37.10;101691.09;4805899;29;20215;-67
2024/01/10 12:08:24;;;;;;;25.40;12.33;;;;;;;3.90;37.33;101689.53;4802347;29;20274;-64
2024/01/10 12:10:52;;;;;;;30.33;12.70;;;;;;;3.67;37.75;101687.19;4805370;29;20217;-63
2024/01/10 12:13:20;;;;;;;28.33;12.10;;;;;;;3.57;38.39;101688.56;4807773;29;20236;-65
2024/01/10 12:15:49;;;;;;;31.27;11.93;;;;;;;3.55;38.96;101685.16;4806926;29;20231;-64
2024/01/10 12:18:17;;;;;;;23.47;10.67;;;;;;;3.53;39.50;101693.09;4805194;29;21179;-69
2024/01/10 12:20:45;;;;;;;25.00;11.80;;;;;;;3.51;39.65;101694.09;4807068;29;20219;-66
2024/01/10 12:23:13;;;;;;;22.90;10.87;;;;;;;3.43;39.56;101691.00;4803813;29;20300;-64
2024/01/10 12:25:41;;;;;;;28.77;12.60;;;;;;;3.35;39.47;101689.56;4803013;29;20713;-64
2024/01/10 12:28:09;;;;;;;25.73;11.53;;;;;;;3.27;39.62;101691.69;4805219;29;20678;-66
2024/01/10 12:30:37;;;;;;;28.57;12.03;;;;;;;3.20;40.07;101684.19;4808049;29;20218;-63
2024/01/10 12:33:06;;;;;;;28.43;11.80;;;;;;;3.19;40.25;101687.75;4805323;29;20247;-64
2024/01/10 12:35:34;;;;;;;23.43;11.57;;;;;;;3.15;40.33;101680.97;4808287;29;20254;-65
2024/01/10 12:38:02;;;;;;;26.77;10.90;;;;;;;3.16;40.56;101677.41;4806775;29;20297;-66
2024/01/10 12:40:33;;;;;;;29.83;12.13;;;;;;;3.13;40.54;101675.78;4807481;29;20215;-63
2024/01/10 12:43:04;;;;;;;24.70;11.90;;;;;;;3.08;40.44;101672.50;4805198;29;20634;-65
2024/01/10 12:45:32;;;;;;;29.63;11.53;;;;;;;3.07;41.09;101668.22;4804382;29;20798;-64
2024/01/10 12:48:00;;;;;;;28.50;11.50;;;;;;;3.07;40.97;101662.97;4808278;29;20299;-64
2024/01/10 12:50:29;;;;;;;31.37;12.27;;;;;;;3.09;41.29;101665.50;4805069;29;20692;-67
2024/01/10 12:52:57;;;;;;;28.57;11.40;;;;;;;3.10;41.29;101656.72;4807013;29;20225;-67
2024/01/10 12:55:27;;;;;;;25.67;11.97;;;;;;;3.12;40.98;101655.72;4806980;29;20243;-63
2024/01/10 12:57:59;;;;;;;28.93;12.07;;;;;;;3.09;40.86;101661.09;4806150;29;20245;-69
2024/01/10 13:00:27;;;;;;;30.30;12.57;;;;;;;3.07;41.11;101662.97;4807832;29;20390;-65
2024/01/10 13:02:55;;;;;;;27.50;11.63;;;;;;;3.07;41.19;101657.72;4806348;29;20274;-67
2024/01/10 13:05:22;;;;;;;31.87;12.23;;;;;;;3.09;41.37;101655.88;4806051;29;20317;-65
2024/01/10 13:07:51;;;;;;;25.33;11.60;;;;;;;3.02;41.24;101667.56;4805744;29;20309;-65
2024/01/10 13:10:19;;;;;;;25.67;10.93;;;;;;;3.01;41.23;101665.84;4806140;29;20268;-63
2024/01/10 13:12:48;;;;;;;28.77;12.10;;;;;;;2.96;41.41;101662.63;4806991;29;20287;-65
2024/01/10 13:15:16;;;;;;;25.67;10.93;;;;;;;2.95;41.87;101653.03;4806315;29;20251;-65
2024/01/10 13:17:43;;;;;;;32.53;12.17;;;;;;;2.90;41.35;101665.53;4807495;29;20221;-63
2024/01/10 13:20:12;;;;;;;23.93;10.70;;;;;;;2.89;41.75;101667.28;4805145;29;20226;-65
2024/01/10 13:22:39;;;;;;;27.00;12.57;;;;;;;2.92;42.01;101661.88;4807462;29;20213;-65
2024/01/10 13:25:09;;;;;;;27.27;11.43;;;;;;;2.92;41.94;101663.66;4804401;29;20245;-63
2024/01/10 13:27:37;;;;;;;25.83;11.03;;;;;;;2.86;41.71;101662.19;4807316;29;20319;-63
2024/01/10 13:30:06;;;;;;;27.30;11.30;;;;;;;2.88;42.34;101673.44;4804371;29;20336;-65
2024/01/10 13:32:34;;;;;;;25.03;11.57;;;;;;;2.81;42.30;101665.94;4807277;29;20612;-63
2024/01/10 13:35:03;;;;;;;27.47;11.33;;;;;;;2.80;41.99;101662.47;4804877;29;20242;-64
2024/01/10 13:37:32;;;;;;;24.80;10.80;;;;;;;2.81;41.84;101666.78;4803959;29;20213;-63
2024/01/10 13:40:00;;;;;;;26.73;12.30;;;;;;;2.81;42.07;101663.31;4807880;29;20744;-63
2024/01/10 13:42:29;;;;;;;28.73;13.03;;;;;;;2.83;42.08;101669.31;4805880;29;20213;-65
2024/01/10 13:44:56;;;;;;;23.67;11.40;;;;;;;2.83;42.20;101677.16;4803307;29;20229;-66
2024/01/10 13:47:24;;;;;;;27.57;11.93;;;;;;;2.81;42.38;101672.03;4804699;29;20249;-65
2024/01/10 13:49:52;;;;;;;28.63;11.83;;;;;;;2.82;42.25;101683.31;4802807;29;20220;-66
2024/01/10 13:52:20;;;;;;;26.57;11.40;;;;;;;2.80;42.39;101675.56;4804285;29;20708;-64
2024/01/10 13:54:48;;;;;;;29.10;12.77;;;;;;;2.82;42.75;101683.31;4803210;29;20836;-65
2024/01/10 13:57:16;;;;;;;23.30;11.43;;;;;;;2.82;42.37;101675.47;4805144;29;20304;-65
2024/01/10 13:59:47;;;;;;;28.70;10.80;;;;;;;2.85;42.33;101672.72;4804445;29;20721;-66
2024/01/10 14:02:15;;;;;;;23.93;12.10;;;;;;;2.81;42.74;101673.81;4806914;29;20250;-66
2024/01/10 14:04:44;;;;;;;25.30;11.77;;;;;;;2.82;43.17;101683.31;4805124;29;20832;-64
2024/01/10 14:07:12;;;;;;;30.20;12.97;;;;;;;2.81;42.82;101681.66;4804306;29;20221;-64
2024/01/10 14:09:40;;;;;;;28.83;12.00;;;;;;;2.79;42.89;101686.97;4805319;29;20299;-66
2024/01/10 14:12:08;;;;;;;24.47;10.93;;;;;;;2.80;42.89;101685.19;4808836;29;20656;-64
2024/01/10 14:14:35;;;;;;;29.97;12.80;;;;;;;2.75;42.88;101682.75;4803007;29;20237;-67
2024/01/10 14:17:05;;;;;;;27.40;12.33;;;;;;;2.75;42.72;101682.75;4805822;29;20218;-63
2024/01/10 14:19:33;;;;;;;28.07;12.47;;;;;;;2.77;43.02;101685.31;4808239;29;20212;-62
2024/01/10 14:22:01;;;;;;;30.70;13.17;;;;;;;2.72;43.00;101687.31;4806984;29;20226;-64
2024/01/10 14:24:40;;;;;;;30.47;12.73;;;;;;;2.68;43.04;101680.50;4805095;29;20571;-63
2024/01/10 14:27:08;;;;;;;28.60;12.37;;;;;;;2.68;43.19;101686.59;4805038;29;20640;-64
2024/01/10 14:29:38;;;;;;;30.47;12.10;;;;;;;2.65;43.25;101681.47;4808868;29;20233;-64
2024/01/10 14:32:07;;;;;;;28.60;12.13;;;;;;;2.61;43.48;101685.16;4808407;29;20213;-63
2024/01/10 14:34:46;;;;;;;31.27;12.93;;;;;;;2.59;43.53;101687.00;4804894;29;20750;-64
2024/01/10 14:37:14;;;;;;;30.87;13.33;;;;;;;2.60;43.70;101681.69;4805455;29;20228;-67
2024/01/10 14:39:45;;;;;;;27.87;12.30;;;;;;;2.61;44.03;101680.78;4808217;29;20220;-65
2024/01/10 14:42:13;;;;;;;26.33;12.30;;;;;;;2.64;43.97;101685.00;4806576;29;20309;-64
2024/01/10 14:44:41;;;;;;;29.63;12.57;;;;;;;2.61;43.98;101685.16;4804942;29;20315;-64
2024/01/10 14:47:10;;;;;;;28.43;12.60;;;;;;;2.58;44.16;101686.13;4805875;29;20891;-64
2024/01/10 14:49:39;;;;;;;32.40;12.73;;;;;;;2.56;44.10;101681.88;4805763;29;20327;-63
2024/01/10 14:52:07;;;;;;;27.73;12.57;;;;;;;2.52;44.10;101683.78;4805913;29;20312;-63
2024/01/10 14:54:35;;;;;;;26.73;12.60;;;;;;;2.47;43.95;101684.91;4803506;29;20728;-64
2024/01/10 14:57:03;;;;;;;36.13;12.47;;;;;;;2.43;44.43;101689.44;4806294;29;20286;-64
2024/01/10 14:59:31;;;;;;;30.20;13.10;;;;;;;2.45;44.35;101692.00;4806351;29;20232;-65
2024/01/10 15:02:15;;;;;;;30.17;13.77;;;;;;;2.43;44.35;101693.81;4806542;29;20241;-66
2024/01/10 15:04:44;;;;;;;32.40;13.37;;;;;;;2.42;44.52;101692.97;4803082;29;20569;-64
2024/01/10 15:07:13;;;;;;;33.23;13.57;;;;;;;2.41;44.38;101703.50;4805986;29;20217;-63
2024/01/10 15:09:42;;;;;;;24.67;12.23;;;;;;;2.38;44.59;101704.47;4804793;29;20217;-64
2024/01/10 15:12:12;;;;;;;26.07;10.83;;;;;;;2.40;44.53;101707.88;4806586;29;20597;-64
2024/01/10 15:14:40;;;;;;;29.73;13.43;;;;;;;2.37;44.70;101712.41;4805561;29;20287;-66
2024/01/10 15:17:09;;;;;;;22.73;11.90;;;;;;;2.38;44.75;101717.56;4804892;29;20237;-65
2024/01/10 15:19:41;;;;;;;31.73;13.57;;;;;;;2.38;44.95;101709.72;4804829;29;20223;-65
2024/01/10 15:22:09;;;;;;;28.13;12.50;;;;;;;2.38;44.97;101719.31;4802927;29;20900;-62
2024/01/10 15:24:38;;;;;;;32.23;12.80;;;;;;;2.32;44.98;101715.22;4806662;29;20230;-64
2024/01/10 15:27:08;;;;;;;28.93;12.67;;;;;;;2.29;45.13;101723.19;4803133;29;20280;-64
2024/01/10 15:29:38;;;;;;;32.50;13.80;;;;;;;2.24;45.45;101712.94;4804726;29;20300;-66
2024/01/10 15:32:07;;;;;;;35.67;12.97;;;;;;;2.21;45.39;101717.44;4805318;29;20274;-66
2024/01/10 15:34:35;;;;;;;29.73;12.80;;;;;;;2.20;45.30;101713.09;4806648;29;20293;-64
2024/01/10 15:37:04;;;;;;;30.07;11.17;;;;;;;2.17;45.48;101719.34;4806775;29;20208;-64
2024/01/10 15:39:32;;;;;;;26.90;12.30;;;;;;;2.14;45.64;101719.47;4807220;29;20233;-64
2024/01/10 15:42:00;;;;;;;27.63;11.17;;;;;;;2.13;45.56;101719.50;4805326;29;20274;-64
2024/01/10 15:44:28;;;;;;;25.93;12.80;;;;;;;2.06;45.98;101718.06;4805561;29;20272;-65
2024/01/10 15:46:57;;;;;;;26.80;11.67;;;;;;;2.02;45.57;101722.59;4805997;29;20676;-64
2024/01/10 15:49:25;;;;;;;29.30;12.50;;;;;;;2.01;45.63;101720.03;4804923;29;20303;-64
2024/01/10 15:51:53;;;;;;;27.80;12.07;;;;;;;1.99;45.52;101727.09;4805682;29;20309;-65
2024/01/10 15:54:24;;;;;;;30.30;12.70;;;;;;;1.93;45.71;101728.22;4804809;29;20239;-67
2024/01/10 15:56:52;;;;;;;29.77;11.93;;;;;;;1.91;45.91;101735.25;4804336;29;20738;-65
2024/01/10 15:59:19;;;;;;;26.13;11.53;;;;;;;1.89;45.99;101727.47;4804628;29;20422;-65
2024/01/10 16:01:47;;;;;;;30.57;13.20;;;;;;;1.87;46.25;101739.75;4804309;29;20263;-64
2024/01/10 16:04:15;;;;;;;29.40;12.63;;;;;;;1.84;46.05;101737.28;4805136;29;20212;-67
2024/01/10 16:06:43;;;;;;;30.83;12.10;;;;;;;1.84;46.33;101746.91;4804623;29;20910;-69
2024/01/10 16:09:12;;;;;;;26.47;11.80;;;;;;;1.80;46.32;101743.53;4805404;29;20248;-66
2024/01/10 16:11:44;;;;;;;36.27;12.27;;;;;;;1.79;46.35;101754.91;4804889;29;20633;-64
2024/01/10 16:14:12;;;;;;;31.20;12.37;;;;;;;1.77;46.47;101759.34;4807506;29;20573;-63
2024/01/10 16:16:40;;;;;;;41.90;13.70;;;;;;;1.75;46.57;101749.88;4808351;29;20249;-66
2024/01/10 16:19:08;;;;;;;26.17;13.37;;;;;;;1.70;46.59;101755.28;4808997;29;20382;-64
2024/01/10 16:21:35;;;;;;;32.20;13.80;;;;;;;1.68;46.81;101764.94;4810385;29;20627;-63
2024/01/10 16:24:04;;;;;;;33.93;14.30;;;;;;;1.66;46.86;101755.47;4807250;29;21083;-64
2024/01/10 16:26:32;;;;;;;36.13;14.87;;;;;;;1.65;46.78;101754.63;4808950;29;20300;-65
2024/01/10 16:29:01;;;;;;;29.73;13.33;;;;;;;1.65;47.04;101751.16;4805449;29;20320;-64
2024/01/10 16:31:29;;;;;;;30.60;13.23;;;;;;;1.62;47.04;101753.88;4806766;29;20233;-64
2024/01/10 16:33:57;;;;;;;32.77;14.50;;;;;;;1.61;47.19;101750.41;4807171;29;20243;-65
2024/01/10 16:36:25;;;;;;;34.37;14.07;;;;;;;1.61;47.07;101754.78;4805649;29;20615;-65
2024/01/10 16:38:54;;;;;;;37.90;14.80;;;;;;;1.61;47.14;101752.16;4806081;29;20920;-64
2024/01/10 16:41:22;;;;;;;29.07;13.20;;;;;;;1.56;47.42;101752.34;4805802;29;20208;-65
2024/01/10 16:43:50;;;;;;;31.47;13.23;;;;;;;1.55;47.24;101742.81;4806561;29;20246;-64
2024/01/10 16:46:19;;;;;;;32.77;14.07;;;;;;;1.54;47.29;101742.84;4809368;29;20593;-65
2024/01/10 16:48:47;;;;;;;31.10;13.13;;;;;;;1.51;47.35;101756.91;4808107;29;20334;-64
2024/01/10 16:51:16;;;;;;;32.57;13.90;;;;;;;1.49;47.44;101758.75;4809403;29;20227;-65
2024/01/10 16:53:43;;;;;;;33.77;14.07;;;;;;;1.48;47.52;101757.03;4806577;29;20842;-67
2024/01/10 16:56:11;;;;;;;32.73;13.40;;;;;;;1.46;47.70;101751.00;4810311;29;20248;-64
2024/01/10 16:58:39;;;;;;;38.20;15.60;;;;;;;1.43;47.73;101749.34;4808157;29;21110;-66
2024/01/10 17:01:07;;;;;;;33.73;13.57;;;;;;;1.43;47.76;101753.72;4807850;29;20300;-64
2024/01/10 17:03:36;;;;;;;32.17;14.83;;;;;;;1.43;47.69;101756.34;4807670;29;20220;-65
2024/01/10 17:06:04;;;;;;;36.70;14.87;;;;;;;1.41;47.93;101759.00;4809803;29;20209;-63
2024/01/10 17:08:32;;;;;;;41.90;16.30;;;;;;;1.42;48.02;101762.47;4809570;29;20216;-65
2024/01/10 17:11:03;;;;;;;36.20;14.23;;;;;;;1.43;47.94;101766.78;4807893;29;20225;-64
2024/01/10 17:13:31;;;;;;;35.00;15.20;;;;;;;1.40;48.03;101759.09;4807609;29;20676;-63
2024/01/10 17:15:59;;;;;;;36.27;14.60;;;;;;;1.37;47.83;101764.44;4807689;29;20739;-63
2024/01/10 17:18:28;;;;;;;34.37;13.93;;;;;;;1.39;48.00;101765.22;4809221;29;20223;-64
2024/01/10 17:20:57;;;;;;;32.97;14.87;;;;;;;1.40;47.96;101764.31;4808573;29;21023;-65
2024/01/10 17:23:25;;;;;;;40.67;15.37;;;;;;;1.38;47.87;101763.53;4805620;29;20654;-64
2024/01/10 17:25:54;;;;;;;33.43;13.83;;;;;;;1.34;48.02;101764.53;4808873;29;20220;-64
2024/01/10 17:28:22;;;;;;;31.57;15.60;;;;;;;1.33;48.14;101770.66;4807958;29;21162;-63
2024/01/10 17:30:50;;;;;;;37.40;15.73;;;;;;;1.34;48.07;101769.75;4806144;29;20919;-65
2024/01/10 17:33:21;;;;;;;38.07;16.00;;;;;;;1.34;48.09;101774.97;4807510;29;20216;-66
2024/01/10 17:35:49;;;;;;;38.33;14.80;;;;;;;1.29;48.08;101766.47;4807648;29;20240;-64
2024/01/10 17:38:18;;;;;;;33.77;14.93;;;;;;;1.26;48.17;101769.19;4806900;29;20652;-64
2024/01/10 17:40:47;;;;;;;32.73;15.10;;;;;;;1.25;48.34;101772.72;4807807;29;20224;-66
2024/01/10 17:43:15;;;;;;;33.83;15.30;;;;;;;1.23;48.48;101766.72;4808596;29;20312;-64
2024/01/10 17:45:43;;;;;;;36.00;14.73;;;;;;;1.22;48.61;101778.06;4807820;29;20243;-63
2024/01/10 17:48:11;;;;;;;34.10;15.53;;;;;;;1.17;48.86;101769.53;4806244;29;20813;-64
2024/01/10 17:50:41;;;;;;;39.07;15.50;;;;;;;1.15;48.69;101772.19;4808177;29;20308;-63
2024/01/10 17:53:09;;;;;;;46.27;16.23;;;;;;;1.12;48.80;101772.34;4805877;29;20249;-65
2024/01/10 17:55:39;;;;;;;35.17;15.13;;;;;;;1.09;48.91;101770.66;4789385;29;20590;-63
2024/01/10 17:58:06;;;;;;;39.10;16.03;;;;;;;1.08;49.08;101771.56;4805122;29;20325;-64
2024/01/10 18:00:34;;;;;;;31.43;14.20;;;;;;;1.07;49.06;101777.72;4804646;29;20926;-64
2024/01/10 18:03:02;;;;;;;40.97;15.67;;;;;;;1.09;49.29;101770.66;4807218;29;20223;-64
2024/01/10 18:05:31;;;;;;;35.90;15.27;;;;;;;1.10;49.01;101776.75;4806433;29;20218;-66
2024/01/10 18:07:58;;;;;;;34.77;15.00;;;;;;;1.11;49.39;101776.69;4807208;29;20289;-64
2024/01/10 18:10:26;;;;;;;35.00;14.63;;;;;;;1.08;49.46;101771.56;4805063;29;20224;-64
2024/01/10 18:12:57;;;;;;;35.07;15.57;;;;;;;1.06;49.35;101764.69;4806728;29;20742;-64
2024/01/10 18:15:25;;;;;;;35.50;15.73;;;;;;;1.02;49.86;101777.03;4807456;29;20739;-66
2024/01/10 18:17:52;;;;;;;36.20;15.10;;;;;;;1.00;50.02;101785.81;4805620;29;20264;-66
2024/01/10 18:20:20;;;;;;;34.63;15.53;;;;;;;0.98;50.17;101783.25;4807298;29;20214;-64
2024/01/10 18:22:48;;;;;;;41.73;16.90;;;;;;;0.96;50.43;101782.50;4805052;29;20220;-63
2024/01/10 18:25:16;;;;;;;38.53;15.30;;;;;;;0.92;50.82;101777.41;4804391;29;20216;-68
2024/01/10 18:27:44;;;;;;;38.80;16.07;;;;;;;0.91;50.72;101786.16;4806698;29;20263;-63
2024/01/10 18:30:14;;;;;;;40.83;16.63;;;;;;;0.88;50.85;101786.28;4807230;29;20301;-64
2024/01/10 18:32:41;;;;;;;39.93;16.77;;;;;;;0.88;50.86;101781.88;4806742;29;20379;-64
2024/01/10 18:35:09;;;;;;;39.40;16.30;;;;;;;0.90;51.17;101782.69;4806042;29;20254;-65
2024/01/10 18:37:37;;;;;;;42.03;16.57;;;;;;;0.90;51.01;101779.22;4804456;29;20243;-64
2024/01/10 18:40:07;;;;;;;39.73;16.07;;;;;;;0.87;51.39;101788.03;4805378;29;20698;-64
2024/01/10 18:42:35;;;;;;;36.63;16.57;;;;;;;0.86;51.46;101791.56;4806815;29;20215;-63